sensor_id;sensor_type;location;lat;lon;timestamp;P1;durP1;ratioP1;P2;durP2;ratioP2
28007;SDS011;15333;50.010;20.020;2023-05-23T00:00:02;28.38;;;18.40;;
28007;SDS011;15333;50.010;20.020;2023-05-23T00:03:33;28.88;;;19.13;;
28007;SDS011;15333;50.010;20.020;2023-05-23T00:06:34;30.33;;;18.80;;
28007;SDS011;15333;50.010;20.020;2023-05-23T00:09:35;32.55;;;19.67;;
28007;SDS011;15333;50.010;20.020;2023-05-23T00:12:36;30.30;;;19.67;;
28007;SDS011;15333;50.010;20.020;2023-05-23T00:15:39;31.75;;;18.48;;
28007;SDS011;15333;50.010;20.020;2023-05-23T00:18:43;31.70;;;19.35;;
28007;SDS011;15333;50.010;20.020;2023-05-23T00:21:45;30.63;;;18.17;;
28007;SDS011;15333;50.010;20.020;2023-05-23T00:24:51;28.15;;;19.52;;
28007;SDS011;15333;50.010;20.020;2023-05-23T00:27:52;30.17;;;18.52;;
28007;SDS011;15333;50.010;20.020;2023-05-23T00:30:53;34.17;;;18.77;;
28007;SDS011;15333;50.010;20.020;2023-05-23T00:33:54;30.17;;;19.23;;
28007;SDS011;15333;50.010;20.020;2023-05-23T00:36:55;26.75;;;18.80;;
28007;SDS011;15333;50.010;20.020;2023-05-23T00:39:57;26.70;;;18.50;;
28007;SDS011;15333;50.010;20.020;2023-05-23T00:42:59;27.92;;;18.48;;
28007;SDS011;15333;50.010;20.020;2023-05-23T00:46:00;30.05;;;19.70;;
28007;SDS011;15333;50.010;20.020;2023-05-23T00:49:02;29.40;;;17.77;;
28007;SDS011;15333;50.010;20.020;2023-05-23T00:52:03;32.13;;;19.75;;
28007;SDS011;15333;50.010;20.020;2023-05-23T00:55:04;28.25;;;18.75;;
28007;SDS011;15333;50.010;20.020;2023-05-23T00:58:05;34.95;;;19.58;;
28007;SDS011;15333;50.010;20.020;2023-05-23T01:01:06;29.27;;;19.58;;
28007;SDS011;15333;50.010;20.020;2023-05-23T01:04:08;34.05;;;19.65;;
28007;SDS011;15333;50.010;20.020;2023-05-23T01:07:09;29.77;;;18.13;;
28007;SDS011;15333;50.010;20.020;2023-05-23T01:10:11;29.42;;;20.42;;
28007;SDS011;15333;50.010;20.020;2023-05-23T01:13:21;32.92;;;19.13;;
28007;SDS011;15333;50.010;20.020;2023-05-23T01:16:31;31.50;;;18.95;;
28007;SDS011;15333;50.010;20.020;2023-05-23T01:26:05;28.38;;;17.52;;
28007;SDS011;15333;50.010;20.020;2023-05-23T01:29:33;26.63;;;17.17;;
28007;SDS011;15333;50.010;20.020;2023-05-23T01:32:38;27.17;;;16.63;;
28007;SDS011;15333;50.010;20.020;2023-05-23T01:35:40;23.17;;;16.80;;
28007;SDS011;15333;50.010;20.020;2023-05-23T01:38:43;27.50;;;15.57;;
28007;SDS011;15333;50.010;20.020;2023-05-23T01:41:44;24.45;;;16.30;;
28007;SDS011;15333;50.010;20.020;2023-05-23T01:44:45;27.52;;;16.67;;
28007;SDS011;15333;50.010;20.020;2023-05-23T01:47:47;23.98;;;15.70;;
28007;SDS011;15333;50.010;20.020;2023-05-23T01:50:50;24.08;;;16.13;;
28007;SDS011;15333;50.010;20.020;2023-05-23T01:53:52;29.95;;;16.63;;
28007;SDS011;15333;50.010;20.020;2023-05-23T01:56:54;25.35;;;16.95;;
28007;SDS011;15333;50.010;20.020;2023-05-23T01:59:56;32.78;;;18.30;;
28007;SDS011;15333;50.010;20.020;2023-05-23T02:02:57;27.65;;;18.52;;
28007;SDS011;15333;50.010;20.020;2023-05-23T02:05:59;28.95;;;18.77;;
28007;SDS011;15333;50.010;20.020;2023-05-23T02:09:01;30.50;;;19.45;;
28007;SDS011;15333;50.010;20.020;2023-05-23T02:12:02;30.45;;;19.42;;
28007;SDS011;15333;50.010;20.020;2023-05-23T02:15:03;33.00;;;21.20;;
28007;SDS011;15333;50.010;20.020;2023-05-23T02:18:05;29.83;;;20.20;;
28007;SDS011;15333;50.010;20.020;2023-05-23T02:21:06;31.27;;;20.13;;
28007;SDS011;15333;50.010;20.020;2023-05-23T02:24:07;32.50;;;19.60;;
28007;SDS011;15333;50.010;20.020;2023-05-23T02:27:08;29.35;;;18.65;;
28007;SDS011;15333;50.010;20.020;2023-05-23T02:30:09;28.98;;;18.65;;
28007;SDS011;15333;50.010;20.020;2023-05-23T02:33:10;32.75;;;19.38;;
28007;SDS011;15333;50.010;20.020;2023-05-23T02:36:12;27.52;;;18.52;;
28007;SDS011;15333;50.010;20.020;2023-05-23T02:39:13;31.98;;;18.58;;
28007;SDS011;15333;50.010;20.020;2023-05-23T02:42:14;35.50;;;18.90;;
28007;SDS011;15333;50.010;20.020;2023-05-23T02:45:15;30.83;;;19.65;;
28007;SDS011;15333;50.010;20.020;2023-05-23T02:48:17;34.47;;;19.65;;
28007;SDS011;15333;50.010;20.020;2023-05-23T02:51:18;32.08;;;19.42;;
28007;SDS011;15333;50.010;20.020;2023-05-23T02:54:20;32.35;;;19.95;;
28007;SDS011;15333;50.010;20.020;2023-05-23T02:57:21;37.33;;;20.25;;
28007;SDS011;15333;50.010;20.020;2023-05-23T03:00:22;30.10;;;20.13;;
28007;SDS011;15333;50.010;20.020;2023-05-23T03:03:27;36.10;;;21.63;;
28007;SDS011;15333;50.010;20.020;2023-05-23T03:06:30;30.40;;;19.25;;
28007;SDS011;15333;50.010;20.020;2023-05-23T03:09:33;33.75;;;19.15;;
28007;SDS011;15333;50.010;20.020;2023-05-23T03:12:35;28.90;;;17.60;;
28007;SDS011;15333;50.010;20.020;2023-05-23T03:15:36;28.17;;;18.05;;
28007;SDS011;15333;50.010;20.020;2023-05-23T03:18:37;25.27;;;17.23;;
28007;SDS011;15333;50.010;20.020;2023-05-23T03:21:41;26.27;;;17.77;;
28007;SDS011;15333;50.010;20.020;2023-05-23T03:24:42;32.60;;;19.25;;
28007;SDS011;15333;50.010;20.020;2023-05-23T03:27:42;25.35;;;17.40;;
28007;SDS011;15333;50.010;20.020;2023-05-23T03:30:43;24.83;;;16.77;;
28007;SDS011;15333;50.010;20.020;2023-05-23T03:33:44;25.73;;;17.08;;
28007;SDS011;15333;50.010;20.020;2023-05-23T03:36:45;25.67;;;16.50;;
28007;SDS011;15333;50.010;20.020;2023-05-23T03:39:46;26.40;;;16.60;;
28007;SDS011;15333;50.010;20.020;2023-05-23T03:42:47;28.25;;;18.10;;
28007;SDS011;15333;50.010;20.020;2023-05-23T03:46:02;30.00;;;17.10;;
28007;SDS011;15333;50.010;20.020;2023-05-23T03:49:04;27.05;;;17.38;;
28007;SDS011;15333;50.010;20.020;2023-05-23T03:52:05;24.52;;;16.42;;
28007;SDS011;15333;50.010;20.020;2023-05-23T03:55:06;26.95;;;17.30;;
28007;SDS011;15333;50.010;20.020;2023-05-23T03:58:09;27.30;;;17.67;;
28007;SDS011;15333;50.010;20.020;2023-05-23T04:01:12;24.77;;;15.82;;
28007;SDS011;15333;50.010;20.020;2023-05-23T04:04:13;27.27;;;15.50;;
28007;SDS011;15333;50.010;20.020;2023-05-23T04:07:16;30.55;;;16.33;;
28007;SDS011;15333;50.010;20.020;2023-05-23T04:10:19;22.67;;;14.57;;
28007;SDS011;15333;50.010;20.020;2023-05-23T04:13:21;22.77;;;15.30;;
28007;SDS011;15333;50.010;20.020;2023-05-23T04:16:24;28.48;;;15.85;;
28007;SDS011;15333;50.010;20.020;2023-05-23T04:19:25;24.40;;;15.32;;
28007;SDS011;15333;50.010;20.020;2023-05-23T04:22:26;39.50;;;16.25;;
28007;SDS011;15333;50.010;20.020;2023-05-23T04:25:27;24.13;;;15.75;;
28007;SDS011;15333;50.010;20.020;2023-05-23T04:28:38;27.65;;;16.00;;
28007;SDS011;15333;50.010;20.020;2023-05-23T04:31:39;22.73;;;15.10;;
28007;SDS011;15333;50.010;20.020;2023-05-23T04:34:40;24.13;;;16.60;;
28007;SDS011;15333;50.010;20.020;2023-05-23T04:37:41;22.77;;;16.48;;
28007;SDS011;15333;50.010;20.020;2023-05-23T04:40:45;24.00;;;15.30;;
28007;SDS011;15333;50.010;20.020;2023-05-23T04:44:05;22.70;;;14.98;;
28007;SDS011;15333;50.010;20.020;2023-05-23T04:47:11;22.10;;;15.82;;
28007;SDS011;15333;50.010;20.020;2023-05-23T04:50:32;22.77;;;15.70;;
28007;SDS011;15333;50.010;20.020;2023-05-23T04:53:35;19.20;;;15.02;;
28007;SDS011;15333;50.010;20.020;2023-05-23T04:56:37;26.50;;;15.85;;
28007;SDS011;15333;50.010;20.020;2023-05-23T04:59:38;24.55;;;14.88;;
28007;SDS011;15333;50.010;20.020;2023-05-23T05:02:40;21.52;;;15.45;;
28007;SDS011;15333;50.010;20.020;2023-05-23T05:05:41;23.90;;;15.00;;
28007;SDS011;15333;50.010;20.020;2023-05-23T05:08:42;24.00;;;15.27;;
28007;SDS011;15333;50.010;20.020;2023-05-23T05:11:44;20.55;;;14.55;;
28007;SDS011;15333;50.010;20.020;2023-05-23T05:14:45;24.23;;;16.02;;
28007;SDS011;15333;50.010;20.020;2023-05-23T05:17:47;19.10;;;14.30;;
28007;SDS011;15333;50.010;20.020;2023-05-23T05:20:50;20.95;;;15.05;;
28007;SDS011;15333;50.010;20.020;2023-05-23T05:23:51;17.35;;;13.43;;
28007;SDS011;15333;50.010;20.020;2023-05-23T05:26:52;18.38;;;15.00;;
28007;SDS011;15333;50.010;20.020;2023-05-23T05:29:53;16.90;;;14.13;;
28007;SDS011;15333;50.010;20.020;2023-05-23T05:32:58;19.35;;;14.15;;
28007;SDS011;15333;50.010;20.020;2023-05-23T05:36:02;23.67;;;14.43;;
28007;SDS011;15333;50.010;20.020;2023-05-23T05:39:04;22.13;;;14.02;;
28007;SDS011;15333;50.010;20.020;2023-05-23T05:42:06;19.67;;;13.43;;
28007;SDS011;15333;50.010;20.020;2023-05-23T05:45:07;21.40;;;13.45;;
28007;SDS011;15333;50.010;20.020;2023-05-23T05:48:10;22.75;;;13.50;;
28007;SDS011;15333;50.010;20.020;2023-05-23T05:51:11;17.98;;;13.35;;
28007;SDS011;15333;50.010;20.020;2023-05-23T05:54:14;22.98;;;14.30;;
28007;SDS011;15333;50.010;20.020;2023-05-23T05:57:15;22.17;;;13.60;;
28007;SDS011;15333;50.010;20.020;2023-05-23T06:00:16;20.40;;;14.43;;
28007;SDS011;15333;50.010;20.020;2023-05-23T06:03:27;21.20;;;14.77;;
28007;SDS011;15333;50.010;20.020;2023-05-23T06:06:29;24.75;;;14.70;;
28007;SDS011;15333;50.010;20.020;2023-05-23T06:09:31;23.52;;;14.88;;
28007;SDS011;15333;50.010;20.020;2023-05-23T06:12:32;26.27;;;14.10;;
28007;SDS011;15333;50.010;20.020;2023-05-23T06:15:33;24.80;;;14.40;;
28007;SDS011;15333;50.010;20.020;2023-05-23T06:18:34;24.98;;;14.07;;
28007;SDS011;15333;50.010;20.020;2023-05-23T06:21:35;22.45;;;14.00;;
28007;SDS011;15333;50.010;20.020;2023-05-23T06:24:38;24.00;;;13.35;;
28007;SDS011;15333;50.010;20.020;2023-05-23T06:27:39;24.27;;;13.18;;
28007;SDS011;15333;50.010;20.020;2023-05-23T06:30:40;19.20;;;13.05;;
28007;SDS011;15333;50.010;20.020;2023-05-23T06:33:42;19.77;;;12.75;;
28007;SDS011;15333;50.010;20.020;2023-05-23T06:36:44;18.67;;;11.88;;
28007;SDS011;15333;50.010;20.020;2023-05-23T06:39:46;18.17;;;13.35;;
28007;SDS011;15333;50.010;20.020;2023-05-23T06:42:47;18.83;;;11.43;;
28007;SDS011;15333;50.010;20.020;2023-05-23T06:46:05;25.65;;;12.88;;
28007;SDS011;15333;50.010;20.020;2023-05-23T06:49:06;21.90;;;13.43;;
28007;SDS011;15333;50.010;20.020;2023-05-23T06:52:09;18.77;;;11.85;;
28007;SDS011;15333;50.010;20.020;2023-05-23T06:55:10;17.17;;;12.15;;
28007;SDS011;15333;50.010;20.020;2023-05-23T06:58:14;24.60;;;12.38;;
28007;SDS011;15333;50.010;20.020;2023-05-23T07:01:16;19.90;;;11.18;;
28007;SDS011;15333;50.010;20.020;2023-05-23T07:04:21;21.77;;;11.98;;
28007;SDS011;15333;50.010;20.020;2023-05-23T07:07:22;17.23;;;12.20;;
28007;SDS011;15333;50.010;20.020;2023-05-23T07:10:24;17.90;;;11.88;;
28007;SDS011;15333;50.010;20.020;2023-05-23T07:13:26;19.60;;;11.90;;
28007;SDS011;15333;50.010;20.020;2023-05-23T07:16:28;16.00;;;11.07;;
28007;SDS011;15333;50.010;20.020;2023-05-23T07:19:35;19.98;;;11.38;;
28007;SDS011;15333;50.010;20.020;2023-05-23T07:22:36;20.63;;;12.25;;
28007;SDS011;15333;50.010;20.020;2023-05-23T07:25:37;15.60;;;11.48;;
28007;SDS011;15333;50.010;20.020;2023-05-23T07:28:43;16.08;;;11.23;;
28007;SDS011;15333;50.010;20.020;2023-05-23T07:31:44;19.33;;;11.50;;
28007;SDS011;15333;50.010;20.020;2023-05-23T07:34:47;19.55;;;11.32;;
28007;SDS011;15333;50.010;20.020;2023-05-23T07:37:48;17.17;;;11.45;;
28007;SDS011;15333;50.010;20.020;2023-05-23T07:40:49;17.52;;;10.73;;
28007;SDS011;15333;50.010;20.020;2023-05-23T07:43:50;15.57;;;10.50;;
28007;SDS011;15333;50.010;20.020;2023-05-23T07:46:51;18.30;;;11.27;;
28007;SDS011;15333;50.010;20.020;2023-05-23T07:49:52;20.60;;;10.70;;
28007;SDS011;15333;50.010;20.020;2023-05-23T07:52:54;20.20;;;11.52;;
28007;SDS011;15333;50.010;20.020;2023-05-23T07:56:01;19.48;;;10.75;;
28007;SDS011;15333;50.010;20.020;2023-05-23T07:59:07;15.55;;;9.93;;
28007;SDS011;15333;50.010;20.020;2023-05-23T08:02:09;15.07;;;10.27;;
28007;SDS011;15333;50.010;20.020;2023-05-23T08:05:11;18.08;;;11.15;;
28007;SDS011;15333;50.010;20.020;2023-05-23T08:08:12;21.92;;;11.80;;
28007;SDS011;15333;50.010;20.020;2023-05-23T08:11:13;23.30;;;11.98;;
28007;SDS011;15333;50.010;20.020;2023-05-23T08:14:19;18.80;;;10.98;;
28007;SDS011;15333;50.010;20.020;2023-05-23T08:17:30;17.63;;;11.18;;
28007;SDS011;15333;50.010;20.020;2023-05-23T08:20:31;21.08;;;11.98;;
28007;SDS011;15333;50.010;20.020;2023-05-23T08:23:33;22.30;;;11.23;;
28007;SDS011;15333;50.010;20.020;2023-05-23T08:26:34;19.10;;;11.18;;
28007;SDS011;15333;50.010;20.020;2023-05-23T08:29:38;21.13;;;10.80;;
28007;SDS011;15333;50.010;20.020;2023-05-23T08:32:40;19.70;;;11.38;;
28007;SDS011;15333;50.010;20.020;2023-05-23T08:35:41;18.25;;;10.40;;
28007;SDS011;15333;50.010;20.020;2023-05-23T08:38:44;20.30;;;10.88;;
28007;SDS011;15333;50.010;20.020;2023-05-23T08:41:52;20.40;;;11.00;;
28007;SDS011;15333;50.010;20.020;2023-05-23T08:44:52;18.92;;;11.20;;
28007;SDS011;15333;50.010;20.020;2023-05-23T08:47:55;19.48;;;10.05;;
28007;SDS011;15333;50.010;20.020;2023-05-23T08:51:00;19.65;;;9.65;;
28007;SDS011;15333;50.010;20.020;2023-05-23T08:54:04;18.88;;;9.30;;
28007;SDS011;15333;50.010;20.020;2023-05-23T08:57:06;19.08;;;9.80;;
28007;SDS011;15333;50.010;20.020;2023-05-23T09:00:14;16.85;;;8.45;;
28007;SDS011;15333;50.010;20.020;2023-05-23T09:03:16;11.50;;;8.02;;
28007;SDS011;15333;50.010;20.020;2023-05-23T09:06:34;16.88;;;8.93;;
28007;SDS011;15333;50.010;20.020;2023-05-23T09:09:36;16.25;;;7.60;;
28007;SDS011;15333;50.010;20.020;2023-05-23T09:12:40;13.75;;;8.18;;
28007;SDS011;15333;50.010;20.020;2023-05-23T09:19:10;12.35;;;7.93;;
28007;SDS011;15333;50.010;20.020;2023-05-23T09:22:12;19.65;;;8.52;;
28007;SDS011;15333;50.010;20.020;2023-05-23T09:25:26;14.13;;;8.18;;
28007;SDS011;15333;50.010;20.020;2023-05-23T09:28:28;10.57;;;7.00;;
28007;SDS011;15333;50.010;20.020;2023-05-23T09:31:30;10.15;;;6.38;;
28007;SDS011;15333;50.010;20.020;2023-05-23T09:34:31;15.57;;;7.72;;
28007;SDS011;15333;50.010;20.020;2023-05-23T09:40:43;13.45;;;7.90;;
28007;SDS011;15333;50.010;20.020;2023-05-23T09:43:51;10.68;;;7.45;;
28007;SDS011;15333;50.010;20.020;2023-05-23T09:46:54;10.93;;;6.55;;
28007;SDS011;15333;50.010;20.020;2023-05-23T09:49:57;13.75;;;6.65;;
28007;SDS011;15333;50.010;20.020;2023-05-23T09:52:59;13.57;;;7.00;;
28007;SDS011;15333;50.010;20.020;2023-05-23T09:56:01;11.15;;;6.93;;
28007;SDS011;15333;50.010;20.020;2023-05-23T09:59:03;11.35;;;6.78;;
28007;SDS011;15333;50.010;20.020;2023-05-23T10:02:09;16.23;;;6.68;;
28007;SDS011;15333;50.010;20.020;2023-05-23T10:05:13;11.82;;;7.07;;
28007;SDS011;15333;50.010;20.020;2023-05-23T10:15:15;10.32;;;6.07;;
28007;SDS011;15333;50.010;20.020;2023-05-23T10:18:20;11.27;;;6.40;;
28007;SDS011;15333;50.010;20.020;2023-05-23T10:21:28;14.35;;;7.00;;
28007;SDS011;15333;50.010;20.020;2023-05-23T10:24:32;12.20;;;6.93;;
28007;SDS011;15333;50.010;20.020;2023-05-23T10:27:38;11.38;;;6.70;;
28007;SDS011;15333;50.010;20.020;2023-05-23T10:30:39;13.43;;;6.28;;
28007;SDS011;15333;50.010;20.020;2023-05-23T10:33:41;9.25;;;6.40;;
28007;SDS011;15333;50.010;20.020;2023-05-23T10:36:54;11.77;;;6.00;;
28007;SDS011;15333;50.010;20.020;2023-05-23T10:40:06;10.75;;;6.30;;
28007;SDS011;15333;50.010;20.020;2023-05-23T10:43:24;10.35;;;5.78;;
28007;SDS011;15333;50.010;20.020;2023-05-23T10:46:50;9.02;;;6.80;;
28007;SDS011;15333;50.010;20.020;2023-05-23T10:49:56;12.48;;;6.10;;
28007;SDS011;15333;50.010;20.020;2023-05-23T10:52:58;12.65;;;6.30;;
28007;SDS011;15333;50.010;20.020;2023-05-23T10:56:08;7.60;;;5.65;;
28007;SDS011;15333;50.010;20.020;2023-05-23T10:59:19;11.65;;;5.78;;
28007;SDS011;15333;50.010;20.020;2023-05-23T11:02:24;12.93;;;6.05;;
28007;SDS011;15333;50.010;20.020;2023-05-23T11:05:27;8.50;;;6.65;;
28007;SDS011;15333;50.010;20.020;2023-05-23T11:08:37;12.35;;;5.93;;
28007;SDS011;15333;50.010;20.020;2023-05-23T11:14:57;16.13;;;5.50;;
28007;SDS011;15333;50.010;20.020;2023-05-23T11:17:58;12.25;;;5.95;;
28007;SDS011;15333;50.010;20.020;2023-05-23T11:20:59;8.07;;;5.50;;
28007;SDS011;15333;50.010;20.020;2023-05-23T11:24:01;15.43;;;6.80;;
28007;SDS011;15333;50.010;20.020;2023-05-23T11:27:02;10.88;;;6.05;;
28007;SDS011;15333;50.010;20.020;2023-05-23T11:33:12;9.82;;;5.90;;
28007;SDS011;15333;50.010;20.020;2023-05-23T11:36:14;9.50;;;6.15;;
28007;SDS011;15333;50.010;20.020;2023-05-23T11:39:15;8.63;;;6.15;;
28007;SDS011;15333;50.010;20.020;2023-05-23T11:42:16;7.45;;;5.80;;
28007;SDS011;15333;50.010;20.020;2023-05-23T11:45:23;12.95;;;5.70;;
28007;SDS011;15333;50.010;20.020;2023-05-23T11:48:25;11.15;;;6.35;;
28007;SDS011;15333;50.010;20.020;2023-05-23T11:51:26;8.00;;;5.68;;
28007;SDS011;15333;50.010;20.020;2023-05-23T11:54:28;9.30;;;5.78;;
28007;SDS011;15333;50.010;20.020;2023-05-23T11:57:29;9.98;;;5.97;;
28007;SDS011;15333;50.010;20.020;2023-05-23T12:00:30;9.98;;;5.35;;
28007;SDS011;15333;50.010;20.020;2023-05-23T12:03:31;10.43;;;5.95;;
28007;SDS011;15333;50.010;20.020;2023-05-23T12:06:33;8.80;;;5.38;;
28007;SDS011;15333;50.010;20.020;2023-05-23T12:09:43;8.30;;;5.20;;
28007;SDS011;15333;50.010;20.020;2023-05-23T12:12:45;6.70;;;4.78;;
28007;SDS011;15333;50.010;20.020;2023-05-23T12:15:46;5.38;;;3.92;;
28007;SDS011;15333;50.010;20.020;2023-05-23T12:18:47;5.40;;;3.63;;
28007;SDS011;15333;50.010;20.020;2023-05-23T12:21:48;10.30;;;4.90;;
28007;SDS011;15333;50.010;20.020;2023-05-23T12:24:52;9.90;;;5.43;;
28007;SDS011;15333;50.010;20.020;2023-05-23T12:27:55;13.75;;;5.05;;
28007;SDS011;15333;50.010;20.020;2023-05-23T12:30:56;9.80;;;5.50;;
28007;SDS011;15333;50.010;20.020;2023-05-23T12:33:57;13.55;;;5.85;;
28007;SDS011;15333;50.010;20.020;2023-05-23T12:36:58;10.13;;;5.50;;
28007;SDS011;15333;50.010;20.020;2023-05-23T12:40:10;10.80;;;5.68;;
28007;SDS011;15333;50.010;20.020;2023-05-23T12:43:15;10.15;;;5.68;;
28007;SDS011;15333;50.010;20.020;2023-05-23T12:46:16;10.43;;;5.78;;
28007;SDS011;15333;50.010;20.020;2023-05-23T12:49:17;12.73;;;5.80;;
28007;SDS011;15333;50.010;20.020;2023-05-23T12:52:18;10.70;;;5.82;;
28007;SDS011;15333;50.010;20.020;2023-05-23T12:55:19;10.90;;;5.43;;
28007;SDS011;15333;50.010;20.020;2023-05-23T12:58:20;11.10;;;5.60;;
28007;SDS011;15333;50.010;20.020;2023-05-23T13:01:21;8.25;;;5.50;;
28007;SDS011;15333;50.010;20.020;2023-05-23T13:04:22;8.48;;;6.35;;
28007;SDS011;15333;50.010;20.020;2023-05-23T13:07:23;16.20;;;6.38;;
28007;SDS011;15333;50.010;20.020;2023-05-23T13:10:24;10.55;;;6.70;;
28007;SDS011;15333;50.010;20.020;2023-05-23T13:13:25;18.67;;;6.65;;
28007;SDS011;15333;50.010;20.020;2023-05-23T13:16:26;12.88;;;6.82;;
28007;SDS011;15333;50.010;20.020;2023-05-23T13:19:27;15.30;;;6.93;;
28007;SDS011;15333;50.010;20.020;2023-05-23T13:22:28;10.95;;;6.30;;
28007;SDS011;15333;50.010;20.020;2023-05-23T13:25:29;9.45;;;6.60;;
28007;SDS011;15333;50.010;20.020;2023-05-23T13:28:29;11.25;;;6.10;;
28007;SDS011;15333;50.010;20.020;2023-05-23T13:31:31;12.05;;;6.43;;
28007;SDS011;15333;50.010;20.020;2023-05-23T13:34:31;8.60;;;6.25;;
28007;SDS011;15333;50.010;20.020;2023-05-23T13:37:34;11.75;;;6.55;;
28007;SDS011;15333;50.010;20.020;2023-05-23T13:40:36;13.43;;;6.70;;
28007;SDS011;15333;50.010;20.020;2023-05-23T13:43:37;14.20;;;6.03;;
28007;SDS011;15333;50.010;20.020;2023-05-23T13:46:37;11.80;;;6.13;;
28007;SDS011;15333;50.010;20.020;2023-05-23T13:49:39;17.58;;;6.75;;
28007;SDS011;15333;50.010;20.020;2023-05-23T13:52:41;12.25;;;6.47;;
28007;SDS011;15333;50.010;20.020;2023-05-23T13:55:42;10.52;;;6.13;;
28007;SDS011;15333;50.010;20.020;2023-05-23T13:58:44;11.18;;;6.10;;
28007;SDS011;15333;50.010;20.020;2023-05-23T14:01:46;10.00;;;6.00;;
28007;SDS011;15333;50.010;20.020;2023-05-23T14:04:47;11.35;;;6.68;;
28007;SDS011;15333;50.010;20.020;2023-05-23T14:07:49;11.77;;;5.97;;
28007;SDS011;15333;50.010;20.020;2023-05-23T14:10:50;7.95;;;5.90;;
28007;SDS011;15333;50.010;20.020;2023-05-23T14:13:51;11.13;;;6.40;;
28007;SDS011;15333;50.010;20.020;2023-05-23T14:16:52;20.52;;;6.25;;
28007;SDS011;15333;50.010;20.020;2023-05-23T14:19:53;9.73;;;6.25;;
28007;SDS011;15333;50.010;20.020;2023-05-23T14:22:54;12.00;;;5.85;;
28007;SDS011;15333;50.010;20.020;2023-05-23T14:25:55;17.40;;;6.57;;
28007;SDS011;15333;50.010;20.020;2023-05-23T14:28:56;15.60;;;6.38;;
28007;SDS011;15333;50.010;20.020;2023-05-23T14:31:57;13.13;;;6.53;;
28007;SDS011;15333;50.010;20.020;2023-05-23T14:34:59;13.35;;;6.35;;
28007;SDS011;15333;50.010;20.020;2023-05-23T14:38:00;11.88;;;6.05;;
28007;SDS011;15333;50.010;20.020;2023-05-23T14:41:01;11.30;;;6.28;;
28007;SDS011;15333;50.010;20.020;2023-05-23T14:44:02;13.00;;;6.38;;
28007;SDS011;15333;50.010;20.020;2023-05-23T14:47:03;18.98;;;6.95;;
28007;SDS011;15333;50.010;20.020;2023-05-23T14:50:05;19.30;;;8.27;;
28007;SDS011;15333;50.010;20.020;2023-05-23T14:53:06;27.98;;;9.32;;
28007;SDS011;15333;50.010;20.020;2023-05-23T14:56:07;20.27;;;9.82;;
28007;SDS011;15333;50.010;20.020;2023-05-23T14:59:08;24.73;;;10.43;;
28007;SDS011;15333;50.010;20.020;2023-05-23T15:02:09;21.67;;;9.75;;
28007;SDS011;15333;50.010;20.020;2023-05-23T15:05:09;24.13;;;10.45;;
28007;SDS011;15333;50.010;20.020;2023-05-23T15:08:11;19.90;;;9.93;;
28007;SDS011;15333;50.010;20.020;2023-05-23T15:11:11;16.83;;;10.18;;
28007;SDS011;15333;50.010;20.020;2023-05-23T15:14:12;16.77;;;10.35;;
28007;SDS011;15333;50.010;20.020;2023-05-23T15:17:13;14.55;;;9.32;;
28007;SDS011;15333;50.010;20.020;2023-05-23T15:20:19;15.50;;;10.20;;
28007;SDS011;15333;50.010;20.020;2023-05-23T15:23:20;15.63;;;10.05;;
28007;SDS011;15333;50.010;20.020;2023-05-23T15:26:21;16.88;;;10.35;;
28007;SDS011;15333;50.010;20.020;2023-05-23T15:29:23;15.80;;;9.43;;
28007;SDS011;15333;50.010;20.020;2023-05-23T15:32:25;14.00;;;9.43;;
28007;SDS011;15333;50.010;20.020;2023-05-23T15:35:26;17.90;;;9.80;;
28007;SDS011;15333;50.010;20.020;2023-05-23T15:38:27;18.05;;;9.65;;
28007;SDS011;15333;50.010;20.020;2023-05-23T15:41:28;18.58;;;10.73;;
28007;SDS011;15333;50.010;20.020;2023-05-23T15:44:29;15.45;;;9.40;;
28007;SDS011;15333;50.010;20.020;2023-05-23T15:47:30;16.60;;;10.43;;
28007;SDS011;15333;50.010;20.020;2023-05-23T15:50:31;14.10;;;9.90;;
28007;SDS011;15333;50.010;20.020;2023-05-23T15:53:32;16.77;;;10.80;;
28007;SDS011;15333;50.010;20.020;2023-05-23T15:56:33;22.55;;;9.57;;
28007;SDS011;15333;50.010;20.020;2023-05-23T15:59:34;20.95;;;11.50;;
28007;SDS011;15333;50.010;20.020;2023-05-23T16:02:36;17.10;;;9.98;;
28007;SDS011;15333;50.010;20.020;2023-05-23T16:05:37;15.10;;;10.38;;
28007;SDS011;15333;50.010;20.020;2023-05-23T16:08:38;14.80;;;10.43;;
28007;SDS011;15333;50.010;20.020;2023-05-23T16:11:39;13.90;;;9.85;;
28007;SDS011;15333;50.010;20.020;2023-05-23T16:14:41;18.08;;;9.88;;
28007;SDS011;15333;50.010;20.020;2023-05-23T16:17:41;12.68;;;9.68;;
28007;SDS011;15333;50.010;20.020;2023-05-23T16:20:42;12.63;;;9.57;;
28007;SDS011;15333;50.010;20.020;2023-05-23T16:23:43;12.05;;;9.15;;
28007;SDS011;15333;50.010;20.020;2023-05-23T16:26:44;12.25;;;8.43;;
28007;SDS011;15333;50.010;20.020;2023-05-23T16:29:45;10.20;;;7.90;;
28007;SDS011;15333;50.010;20.020;2023-05-23T16:32:46;12.20;;;8.13;;
28007;SDS011;15333;50.010;20.020;2023-05-23T16:35:47;11.38;;;7.70;;
28007;SDS011;15333;50.010;20.020;2023-05-23T16:38:48;14.35;;;8.02;;
28007;SDS011;15333;50.010;20.020;2023-05-23T16:41:49;13.55;;;8.48;;
28007;SDS011;15333;50.010;20.020;2023-05-23T16:44:50;12.38;;;8.25;;
28007;SDS011;15333;50.010;20.020;2023-05-23T16:47:51;13.25;;;8.52;;
28007;SDS011;15333;50.010;20.020;2023-05-23T16:50:52;12.95;;;9.50;;
28007;SDS011;15333;50.010;20.020;2023-05-23T16:53:53;17.52;;;10.00;;
28007;SDS011;15333;50.010;20.020;2023-05-23T16:56:54;12.48;;;9.93;;
28007;SDS011;15333;50.010;20.020;2023-05-23T16:59:56;15.32;;;10.55;;
28007;SDS011;15333;50.010;20.020;2023-05-23T17:02:57;16.33;;;10.60;;
28007;SDS011;15333;50.010;20.020;2023-05-23T17:05:58;16.38;;;11.00;;
28007;SDS011;15333;50.010;20.020;2023-05-23T17:09:00;12.68;;;9.63;;
28007;SDS011;15333;50.010;20.020;2023-05-23T17:12:01;13.13;;;10.02;;
28007;SDS011;15333;50.010;20.020;2023-05-23T17:15:02;14.13;;;10.65;;
28007;SDS011;15333;50.010;20.020;2023-05-23T17:18:03;14.93;;;10.02;;
28007;SDS011;15333;50.010;20.020;2023-05-23T17:21:05;12.00;;;9.13;;
28007;SDS011;15333;50.010;20.020;2023-05-23T17:24:05;13.60;;;8.85;;
28007;SDS011;15333;50.010;20.020;2023-05-23T17:27:06;11.65;;;9.02;;
28007;SDS011;15333;50.010;20.020;2023-05-23T17:30:07;13.60;;;8.35;;
28007;SDS011;15333;50.010;20.020;2023-05-23T17:33:09;14.50;;;8.80;;
28007;SDS011;15333;50.010;20.020;2023-05-23T17:36:10;11.27;;;8.85;;
28007;SDS011;15333;50.010;20.020;2023-05-23T17:39:11;14.80;;;8.85;;
28007;SDS011;15333;50.010;20.020;2023-05-23T17:42:13;10.98;;;8.70;;
28007;SDS011;15333;50.010;20.020;2023-05-23T17:45:15;13.55;;;8.43;;
28007;SDS011;15333;50.010;20.020;2023-05-23T17:48:16;16.13;;;8.68;;
28007;SDS011;15333;50.010;20.020;2023-05-23T17:51:17;13.45;;;8.70;;
28007;SDS011;15333;50.010;20.020;2023-05-23T17:54:18;11.20;;;8.68;;
28007;SDS011;15333;50.010;20.020;2023-05-23T17:57:19;12.00;;;8.55;;
28007;SDS011;15333;50.010;20.020;2023-05-23T18:00:19;10.57;;;8.10;;
28007;SDS011;15333;50.010;20.020;2023-05-23T18:03:21;15.05;;;8.95;;
28007;SDS011;15333;50.010;20.020;2023-05-23T18:06:23;13.27;;;9.05;;